Time;durP1;ratioP1;P1;durP2;ratioP2;P2;SDS_P1;SDS_P2;PMS_P1;PMS_P2;Temp;Humidity;BMP_temperature;BMP_pressure;BME280_temperature;BME280_humidity;BME280_pressure;Samples;Min_cycle;Max_cycle;Signal;HPM_P1;HPM_P2
2022/09/29 00:00:09;;;;;;;10.17;7.77;;;9.60;88.20;;;;;;5113680;28;20179;-74
2022/09/29 00:02:35;;;;;;;10.17;7.10;;;9.60;83.00;;;;;;5114304;28;20666;-75
2022/09/29 00:05:00;;;;;;;12.03;7.50;;;9.60;80.80;;;;;;5114123;28;20262;-75
2022/09/29 00:07:28;;;;;;;9.23;7.00;;;9.60;80.90;;;;;;5114061;28;20261;-76
2022/09/29 00:09:53;;;;;;;11.40;7.13;;;9.50;82.80;;;;;;5114101;28;20262;-75
2022/09/29 00:12:19;;;;;;;8.13;7.30;;;9.50;89.80;;;;;;5114072;28;20205;-75
2022/09/29 00:14:45;;;;;;;10.43;6.80;;;9.40;91.00;;;;;;5113664;28;20178;-75
2022/09/29 00:17:10;;;;;;;9.67;7.33;;;9.40;91.60;;;;;;5113850;28;20175;-75
2022/09/29 00:19:36;;;;;;;10.07;6.73;;;9.40;91.90;;;;;;5114028;28;20709;-75
2022/09/29 00:22:02;;;;;;;9.93;7.20;;;9.40;91.50;;;;;;5113325;28;20710;-75
2022/09/29 00:24:27;;;;;;;8.53;6.63;;;9.50;90.90;;;;;;5113975;28;20174;-76
2022/09/29 00:26:53;;;;;;;8.87;7.27;;;9.40;89.70;;;;;;5113653;28;20686;-76
2022/09/29 00:29:19;;;;;;;7.13;6.43;;;9.50;90.00;;;;;;5113390;28;20183;-76
2022/09/29 00:31:44;;;;;;;10.67;7.33;;;9.50;87.20;;;;;;5113792;28;20619;-75
2022/09/29 00:34:10;;;;;;;10.93;7.00;;;9.50;87.90;;;;;;5113973;28;20670;-75
2022/09/29 00:36:37;;;;;;;11.77;6.83;;;9.50;85.30;;;;;;5095499;28;20175;-75
2022/09/29 00:39:03;;;;;;;7.50;6.40;;;9.50;86.70;;;;;;5113680;28;20218;-75
2022/09/29 00:41:32;;;;;;;11.90;7.27;;;9.50;86.60;;;;;;5113559;28;20631;-75
2022/09/29 00:44:03;;;;;;;7.87;6.40;;;9.50;86.00;;;;;;5113264;28;20171;-75
2022/09/29 00:46:40;;;;;;;7.60;6.77;;;9.50;84.70;;;;;;5113564;28;20194;-75
2022/09/29 00:49:10;;;;;;;11.93;7.00;;;9.50;82.30;;;;;;5095414;28;20256;-76
2022/09/29 00:51:39;;;;;;;7.93;6.73;;;9.40;88.60;;;;;;5113722;28;20172;-76
2022/09/29 00:54:06;;;;;;;10.63;6.40;;;9.40;89.80;;;;;;5113654;28;20170;-75
2022/09/29 00:56:34;;;;;;;7.80;7.00;;;9.30;91.30;;;;;;5113418;28;20704;-76
2022/09/29 00:59:04;;;;;;;7.53;6.70;;;9.40;92.90;;;;;;5113103;28;20206;-75
2022/09/29 01:01:31;;;;;;;10.47;6.50;;;9.20;91.30;;;;;;5113556;28;20167;-76
2022/09/29 01:04:23;;;;;;;12.63;7.37;;;9.10;93.20;;;;;;5113545;28;20176;-75
2022/09/29 01:06:53;;;;;;;9.47;7.53;;;9.10;95.10;;;;;;5109046;28;20175;-75
2022/09/29 01:09:24;;;;;;;7.90;7.10;;;9.10;98.00;;;;;;5113643;28;20168;-75
2022/09/29 01:11:53;;;;;;;8.03;7.23;;;9.00;98.80;;;;;;5113283;28;20266;-75
2022/09/29 01:14:20;;;;;;;9.80;7.20;;;9.10;98.40;;;;;;5113457;28;20202;-75
2022/09/29 01:16:46;;;;;;;9.70;7.27;;;9.00;98.30;;;;;;5113405;28;20224;-76
2022/09/29 01:19:38;;;;;;;9.30;7.20;;;9.00;97.70;;;;;;5113193;28;20215;-75
2022/09/29 01:22:42;;;;;;;11.07;8.00;;;9.00;98.40;;;;;;5113514;28;20191;-75
2022/09/29 01:25:25;;;;;;;9.77;7.83;;;9.00;96.20;;;;;;5113368;28;20169;-75
2022/09/29 01:28:16;;;;;;;8.47;7.23;;;8.80;98.70;;;;;;5112453;28;20361;-75
2022/09/29 01:31:06;;;;;;;9.80;7.27;;;8.80;99.90;;;;;;5113117;28;20210;-75
2022/09/29 01:33:46;;;;;;;11.10;7.43;;;8.80;99.90;;;;;;5116863;28;20201;-75
2022/09/29 01:36:32;;;;;;;9.37;7.57;;;8.70;99.90;;;;;;5117071;28;20219;-75
2022/09/29 01:39:16;;;;;;;9.63;7.77;;;8.70;99.90;;;;;;5102206;28;20280;-75
2022/09/29 01:41:50;;;;;;;9.20;7.63;;;8.70;99.90;;;;;;5098346;28;20183;-75
2022/09/29 01:44:38;;;;;;;9.87;8.00;;;8.70;99.90;;;;;;5098519;28;20203;-75
2022/09/29 01:47:25;;;;;;;10.97;8.10;;;8.70;99.90;;;;;;5116906;28;20171;-75
2022/09/29 01:50:00;;;;;;;12.13;8.37;;;8.70;99.90;;;;;;5116739;28;20171;-75
2022/09/29 01:52:31;;;;;;;10.63;7.73;;;8.70;99.90;;;;;;5098506;28;20511;-75
2022/09/29 01:55:02;;;;;;;8.70;7.77;;;8.80;99.90;;;;;;5116402;28;20255;-75
2022/09/29 01:57:38;;;;;;;10.90;8.03;;;8.70;99.90;;;;;;5098495;28;20178;-75
2022/09/29 02:00:14;;;;;;;10.57;7.80;;;8.70;99.90;;;;;;5116582;28;20187;-75
2022/09/29 02:02:44;;;;;;;10.50;7.63;;;8.70;99.90;;;;;;5116625;28;20177;-76
2022/09/29 02:05:19;;;;;;;11.93;7.80;;;8.70;99.90;;;;;;5116446;28;20254;-75
2022/09/29 02:07:46;;;;;;;8.67;7.33;;;8.70;99.90;;;;;;5116575;28;20167;-75
2022/09/29 02:10:29;;;;;;;10.83;7.23;;;8.80;99.90;;;;;;5116051;28;20683;-75
2022/09/29 02:12:59;;;;;;;14.33;8.20;;;8.80;99.90;;;;;;5116331;28;20645;-75
2022/09/29 02:15:32;;;;;;;10.13;7.20;;;8.80;99.90;;;;;;5116360;28;20216;-75
2022/09/29 02:18:09;;;;;;;10.53;7.27;;;8.80;99.90;;;;;;5116074;28;20238;-75
2022/09/29 02:20:35;;;;;;;11.93;7.00;;;8.80;99.90;;;;;;5116274;28;20170;-75
2022/09/29 02:23:01;;;;;;;10.23;7.80;;;8.90;99.90;;;;;;5097978;28;20171;-75
2022/09/29 02:25:27;;;;;;;11.13;7.80;;;8.90;99.90;;;;;;5115682;28;20171;-75
2022/09/29 02:27:52;;;;;;;12.90;8.10;;;8.80;99.90;;;;;;5115630;28;20690;-75
2022/09/29 02:30:19;;;;;;;9.33;6.83;;;8.80;99.90;;;;;;5115774;28;20174;-75
2022/09/29 02:32:46;;;;;;;11.30;7.53;;;8.80;99.90;;;;;;5097854;28;20171;-75
2022/09/29 02:35:13;;;;;;;9.97;6.97;;;8.80;99.90;;;;;;5097578;28;20163;-75
2022/09/29 02:37:39;;;;;;;10.90;6.87;;;8.70;99.90;;;;;;5115680;28;20167;-75
2022/09/29 02:40:21;;;;;;;10.37;6.90;;;8.80;99.90;;;;;;5115256;28;20190;-75
2022/09/29 02:42:59;;;;;;;11.10;7.30;;;8.80;99.90;;;;;;5115515;28;20186;-74
2022/09/29 02:45:49;;;;;;;14.10;6.80;;;8.80;99.90;;;;;;5115160;28;20235;-75
2022/09/29 02:48:30;;;;;;;10.47;6.83;;;8.80;99.90;;;;;;5115469;28;20171;-75
2022/09/29 02:51:00;;;;;;;7.93;7.20;;;8.80;99.90;;;;;;5115334;28;20163;-75
2022/09/29 02:53:45;;;;;;;10.10;7.30;;;8.80;99.90;;;;;;5115215;28;20171;-75
2022/09/29 02:56:46;;;;;;;9.43;6.57;;;8.80;99.60;;;;;;5115554;28;20250;-75
2022/09/29 02:59:24;;;;;;;11.07;7.10;;;8.80;99.80;;;;;;5016056;28;20689;-75
2022/09/29 03:01:52;;;;;;;11.23;7.00;;;8.80;99.90;;;;;;5032775;28;20178;-75
2022/09/29 03:04:20;;;;;;;10.73;7.23;;;8.80;99.90;;;;;;5032526;28;20523;-74
2022/09/29 03:06:46;;;;;;;12.87;7.40;;;8.70;99.90;;;;;;5015862;28;20244;-73
2022/09/29 03:09:12;;;;;;;9.40;6.97;;;8.80;99.90;;;;;;5032386;28;20178;-74
2022/09/29 03:11:38;;;;;;;9.97;7.00;;;8.80;99.90;;;;;;5032586;28;20731;-73
2022/09/29 03:14:05;;;;;;;7.57;6.77;;;8.70;99.90;;;;;;5032391;28;20206;-74
2022/09/29 03:16:31;;;;;;;11.97;7.03;;;8.70;99.90;;;;;;5032352;28;20174;-75
2022/09/29 03:18:57;;;;;;;8.70;6.83;;;8.70;99.90;;;;;;5015634;28;20237;-75
2022/09/29 03:21:22;;;;;;;9.00;6.30;;;8.70;99.90;;;;;;5031708;28;20211;-75
2022/09/29 03:23:48;;;;;;;9.33;7.40;;;8.70;99.90;;;;;;5031949;28;20174;-74
2022/09/29 03:26:14;;;;;;;11.00;7.13;;;8.70;99.90;;;;;;5032014;28;20190;-75
2022/09/29 03:28:39;;;;;;;10.37;6.90;;;8.80;99.90;;;;;;5031787;28;20283;-75
2022/09/29 03:31:08;;;;;;;8.73;7.27;;;8.90;99.90;;;;;;5031919;28;20549;-75
2022/09/29 03:33:37;;;;;;;8.70;6.70;;;9.00;99.90;;;;;;5060439;28;20640;-75
2022/09/29 03:36:04;;;;;;;11.43;7.10;;;9.00;99.90;;;;;;5074231;28;20168;-75
2022/09/29 03:38:30;;;;;;;9.70;7.00;;;9.00;98.60;;;;;;5073554;28;20292;-75
2022/09/29 03:40:55;;;;;;;7.77;6.50;;;9.10;96.30;;;;;;5073618;28;20175;-75
2022/09/29 03:43:21;;;;;;;7.83;6.30;;;9.10;95.60;;;;;;5073777;28;20169;-75
2022/09/29 03:45:52;;;;;;;8.60;6.40;;;9.10;94.10;;;;;;5073437;28;20203;-75
2022/09/29 03:48:18;;;;;;;8.53;6.27;;;9.10;93.60;;;;;;5073840;28;20169;-75
2022/09/29 03:50:45;;;;;;;10.70;6.33;;;9.10;92.70;;;;;;5073507;28;20208;-75
2022/09/29 03:53:12;;;;;;;9.27;6.50;;;9.20;91.40;;;;;;5073603;28;20168;-75
2022/09/29 03:55:38;;;;;;;8.63;6.43;;;9.20;90.90;;;;;;5072687;28;20169;-75
2022/09/29 03:58:03;;;;;;;8.30;6.13;;;9.10;90.90;;;;;;5072959;28;20222;-75
2022/09/29 04:00:29;;;;;;;8.50;6.77;;;9.10;91.70;;;;;;5073454;28;20273;-75
2022/09/29 04:02:54;;;;;;;11.10;6.90;;;9.10;92.20;;;;;;5073430;28;20225;-75
2022/09/29 04:05:20;;;;;;;7.27;6.30;;;9.10;92.70;;;;;;5072777;28;20214;-76
2022/09/29 04:07:46;;;;;;;9.33;6.40;;;9.10;92.50;;;;;;5073429;28;20181;-75
2022/09/29 04:10:12;;;;;;;10.67;6.70;;;9.10;91.20;;;;;;5072878;28;20204;-75
2022/09/29 04:12:38;;;;;;;7.60;6.57;;;9.10;91.70;;;;;;5073204;28;20253;-75
2022/09/29 04:15:04;;;;;;;8.23;6.63;;;9.10;91.30;;;;;;5073168;28;20624;-76
2022/09/29 04:17:30;;;;;;;9.40;7.53;;;9.00;91.60;;;;;;5073325;28;20230;-75
2022/09/29 04:19:55;;;;;;;8.97;7.30;;;9.10;93.20;;;;;;5072926;28;20203;-75
2022/09/29 04:22:21;;;;;;;8.07;6.60;;;9.10;93.30;;;;;;5073163;28;20176;-75
2022/09/29 04:24:47;;;;;;;11.13;7.33;;;9.10;92.40;;;;;;5072567;28;20183;-75
2022/09/29 04:27:13;;;;;;;12.40;7.23;;;9.00;94.00;;;;;;5084842;28;20215;-75
2022/09/29 04:29:39;;;;;;;10.87;6.63;;;9.00;93.90;;;;;;5113596;28;20232;-75
2022/09/29 04:32:05;;;;;;;8.90;6.73;;;9.00;92.90;;;;;;5113660;28;20171;-75
2022/09/29 04:34:31;;;;;;;8.13;6.30;;;9.10;92.90;;;;;;5113209;28;20171;-75
2022/09/29 04:36:58;;;;;;;10.77;6.27;;;9.00;92.80;;;;;;5113412;28;20210;-75
2022/09/29 04:39:23;;;;;;;10.33;6.47;;;9.00;93.40;;;;;;5112999;28;20229;-75
2022/09/29 04:41:49;;;;;;;10.17;6.67;;;9.00;95.20;;;;;;5112806;28;20182;-75
2022/09/29 04:44:15;;;;;;;8.63;6.40;;;9.10;97.70;;;;;;5113251;28;20642;-75
2022/09/29 04:46:41;;;;;;;11.60;6.80;;;9.10;97.70;;;;;;5113336;28;20163;-75
2022/09/29 04:49:06;;;;;;;10.83;6.87;;;9.10;98.30;;;;;;5113054;28;20262;-75
2022/09/29 04:51:32;;;;;;;12.10;6.73;;;9.10;97.70;;;;;;5113088;28;20167;-75
2022/09/29 04:53:58;;;;;;;10.80;6.50;;;9.10;97.10;;;;;;5112866;28;20179;-75
2022/09/29 04:56:24;;;;;;;12.40;6.57;;;9.10;97.90;;;;;;5112962;28;20167;-75
2022/09/29 04:58:50;;;;;;;12.27;7.13;;;9.20;95.60;;;;;;5113107;28;20571;-75
2022/09/29 05:01:15;;;;;;;11.40;6.97;;;9.20;94.30;;;;;;5113072;28;20178;-75
2022/09/29 05:03:41;;;;;;;9.57;7.07;;;9.20;94.10;;;;;;5112956;28;20566;-75
2022/09/29 05:06:08;;;;;;;10.67;6.80;;;9.20;92.70;;;;;;5113032;28;20559;-75
2022/09/29 05:08:35;;;;;;;8.53;7.03;;;9.10;92.20;;;;;;5116843;28;20178;-75
2022/09/29 05:11:05;;;;;;;10.60;6.40;;;9.10;92.30;;;;;;5116550;28;20163;-75
2022/09/29 05:13:31;;;;;;;11.53;7.07;;;9.00;94.80;;;;;;5116746;28;20171;-76
2022/09/29 05:15:57;;;;;;;13.07;7.13;;;8.90;96.20;;;;;;5116965;28;20167;-75
2022/09/29 05:18:23;;;;;;;8.40;6.80;;;8.90;99.10;;;;;;5116512;28;20210;-76
2022/09/29 05:20:49;;;;;;;11.37;7.30;;;8.90;99.20;;;;;;5116755;28;20191;-75
2022/09/29 05:23:15;;;;;;;14.17;6.77;;;8.90;99.90;;;;;;5116423;28;20203;-76
2022/09/29 05:25:40;;;;;;;10.27;7.17;;;8.80;99.90;;;;;;5116528;28;20159;-75
2022/09/29 05:28:07;;;;;;;11.17;6.53;;;8.70;99.90;;;;;;5115799;28;20207;-75
2022/09/29 05:30:33;;;;;;;9.57;7.47;;;8.70;99.90;;;;;;5116693;28;20224;-75
2022/09/29 05:32:58;;;;;;;14.50;7.47;;;8.60;99.90;;;;;;5115842;28;20510;-75
2022/09/29 05:35:24;;;;;;;11.80;7.33;;;8.60;99.90;;;;;;5115395;28;20686;-75
2022/09/29 05:37:51;;;;;;;11.47;7.40;;;8.60;99.90;;;;;;5116263;28;20179;-75
2022/09/29 05:40:18;;;;;;;15.13;8.07;;;8.70;99.90;;;;;;5097350;28;20191;-76
2022/09/29 05:42:44;;;;;;;13.97;8.47;;;8.70;99.90;;;;;;5115533;28;20182;-75
2022/09/29 05:45:10;;;;;;;18.73;8.03;;;8.70;99.90;;;;;;5116540;28;20273;-75
2022/09/29 05:47:40;;;;;;;13.60;7.60;;;8.80;99.90;;;;;;5096588;28;20187;-75
2022/09/29 05:50:06;;;;;;;11.10;7.30;;;8.90;99.90;;;;;;5115646;28;20163;-75
2022/09/29 05:52:32;;;;;;;13.53;7.47;;;8.80;99.90;;;;;;5097388;28;20183;-75
2022/09/29 05:54:58;;;;;;;15.37;7.70;;;8.80;99.90;;;;;;5097322;28;20567;-75
2022/09/29 05:57:24;;;;;;;13.10;7.83;;;8.80;99.90;;;;;;5115550;28;20171;-75
2022/09/29 05:59:49;;;;;;;15.17;9.00;;;8.90;99.90;;;;;;5115252;28;20230;-75
2022/09/29 06:02:15;;;;;;;18.27;9.30;;;9.00;99.90;;;;;;5114969;28;20269;-75
2022/09/29 06:04:41;;;;;;;15.90;8.43;;;9.10;99.90;;;;;;5096969;28;20179;-75
2022/09/29 06:07:07;;;;;;;11.77;8.07;;;9.10;99.90;;;;;;5115134;28;20185;-76
2022/09/29 06:09:34;;;;;;;17.60;8.00;;;9.20;99.90;;;;;;5115570;28;20190;-76
2022/09/29 06:12:00;;;;;;;12.70;7.47;;;9.20;99.90;;;;;;5115026;28;20190;-77
2022/09/29 06:14:26;;;;;;;19.20;7.63;;;9.30;99.90;;;;;;5096422;28;20171;-76
2022/09/29 06:16:52;;;;;;;18.20;7.33;;;9.40;99.90;;;;;;5114425;28;20254;-75
2022/09/29 06:19:18;;;;;;;16.33;6.70;;;9.60;99.90;;;;;;5113725;28;20211;-76
2022/09/29 06:21:44;;;;;;;13.47;8.43;;;9.60;97.30;;;;;;5114726;28;20515;-77
2022/09/29 06:24:10;;;;;;;16.37;7.30;;;9.70;94.20;;;;;;5114383;28;20540;-76
2022/09/29 06:26:35;;;;;;;9.00;6.97;;;9.80;90.00;;;;;;5114712;28;20163;-75
2022/09/29 06:29:01;;;;;;;14.10;7.17;;;9.90;82.90;;;;;;5114381;28;20659;-75
2022/09/29 06:31:28;;;;;;;14.40;7.07;;;10.00;80.20;;;;;;5094995;28;20167;-77
2022/09/29 06:33:59;;;;;;;12.27;7.10;;;10.20;76.20;;;;;;5114830;28;20172;-75
2022/09/29 06:39:13;;;;;;;17.03;7.87;;;10.50;58.50;;;;;;5114692;28;20245;-75
2022/09/29 06:41:38;;;;;;;15.87;7.73;;;10.70;48.00;;;;;;5114277;28;20269;-75
2022/09/29 06:44:04;;;;;;;18.07;7.37;;;11.00;41.30;;;;;;5114621;28;20174;-74
2022/09/29 06:46:30;;;;;;;15.83;7.23;;;11.30;35.10;;;;;;5113487;28;20187;-73
2022/09/29 06:48:56;;;;;;;13.93;6.50;;;11.80;22.40;;;;;;5114341;28;20167;-74
2022/09/29 06:51:23;;;;;;;20.13;6.97;;;12.80;1.00;;;;;;5113647;28;20530;-75
2022/09/29 06:53:50;;;;;;;12.33;5.73;;;14.30;1.00;;;;;;5114007;28;20248;-74
2022/09/29 06:56:17;;;;;;;7.13;5.67;;;16.20;1.00;;;;;;5113288;28;20648;-75
2022/09/29 06:58:44;;;;;;;12.00;5.97;;;17.50;99.90;;;;;;5111878;27;20203;-74
2022/09/29 07:01:10;;;;;;;10.07;5.82;;;19.10;1.00;;;;;;5125684;27;20236;-74
2022/09/29 07:03:36;;;;;;;8.70;5.45;;;20.60;1.00;;;;;;5134041;27;20162;-74
2022/09/29 07:06:07;;;;;;;12.00;5.43;;;20.60;99.90;;;;;;5133659;27;20295;-73
2022/09/29 07:08:35;;;;;;;9.18;5.38;;;21.50;1.00;;;;;;5112255;28;20178;-73
2022/09/29 07:11:04;;;;;;;9.77;4.95;;;21.30;1.00;;;;;;5129224;27;20174;-74
2022/09/29 07:13:30;;;;;;;5.35;4.70;;;21.80;82.30;;;;;;5133896;27;20162;-75
2022/09/29 07:16:01;;;;;;;5.55;4.90;;;21.70;78.70;;;;;;5133600;27;20705;-75
2022/09/29 07:18:28;;;;;;;12.27;4.60;;;22.40;76.20;;;;;;5133923;27;20281;-75
2022/09/29 07:20:55;;;;;;;9.30;5.63;;;22.50;75.00;;;;;;5133655;27;20178;-75
2022/09/29 07:23:21;;;;;;;7.43;5.13;;;22.00;74.20;;;;;;5133720;27;20171;-75
2022/09/29 07:25:46;;;;;;;10.77;5.65;;;21.80;74.20;;;;;;5133962;27;20453;-75
2022/09/29 07:28:13;;;;;;;17.80;6.43;;;21.00;76.30;;;;;;5133424;27;20250;-74
2022/09/29 07:30:39;;;;;;;7.60;5.55;;;19.60;82.60;;;;;;5133746;27;20198;-74
2022/09/29 07:33:04;;;;;;;12.40;5.55;;;18.70;1.00;;;;;;5133419;27;20209;-75
2022/09/29 07:35:30;;;;;;;9.35;5.90;;;18.50;99.90;;;;;;5133677;27;20206;-75
2022/09/29 07:37:56;;;;;;;9.68;5.60;;;18.40;1.00;;;;;;5133767;27;20613;-76
2022/09/29 07:40:23;;;;;;;9.82;5.90;;;18.80;99.90;;;;;;5133303;27;20175;-75
2022/09/29 07:42:49;;;;;;;9.30;5.15;;;19.10;1.00;;;;;;5132506;27;20416;-75
2022/09/29 07:45:16;;;;;;;10.15;5.63;;;19.40;1.00;;;;;;5133309;27;20243;-75
2022/09/29 07:47:42;;;;;;;10.98;5.57;;;20.00;1.00;;;;;;5133756;27;20244;-74
2022/09/29 07:50:08;;;;;;;12.82;6.30;;;20.30;33.30;;;;;;5133579;27;20618;-75
2022/09/29 07:52:34;;;;;;;17.02;6.85;;;20.30;99.90;;;;;;5108292;27;20183;-75
2022/09/29 07:54:59;;;;;;;17.50;7.65;;;20.90;1.00;;;;;;5129966;27;20664;-75
2022/09/29 07:57:25;;;;;;;16.83;6.05;;;21.80;1.00;;;;;;5110041;27;20244;-76
2022/09/29 07:59:53;;;;;;;12.32;6.40;;;22.50;1.00;;;;;;5133301;27;20251;-76
2022/09/29 08:02:19;;;;;;;11.75;6.25;;;22.20;73.10;;;;;;5132992;27;20171;-76
2022/09/29 08:04:45;;;;;;;11.77;6.38;;;22.90;71.20;;;;;;5132581;27;20174;-76
2022/09/29 08:07:10;;;;;;;9.05;5.32;;;22.60;71.20;;;;;;5132985;27;20625;-75
2022/09/29 08:09:36;;;;;;;21.35;7.63;;;22.90;69.10;;;;;;5132361;27;20653;-75
2022/09/29 08:12:02;;;;;;;16.63;6.55;;;23.30;68.60;;;;;;5127139;27;20185;-75
2022/09/29 08:14:28;;;;;;;15.15;6.75;;;23.80;66.30;;;;;;5123822;27;20597;-74
2022/09/29 08:16:53;;;;;;;14.13;6.65;;;24.30;64.00;;;;;;5117655;27;20257;-75
2022/09/29 08:19:19;;;;;;;11.45;6.10;;;23.80;63.90;;;;;;5132424;27;20198;-76
2022/09/29 08:21:48;;;;;;;12.27;6.25;;;23.00;65.00;;;;;;5114109;27;20174;-75
2022/09/29 08:24:14;;;;;;;10.43;6.00;;;23.60;66.40;;;;;;5132589;27;20170;-78
2022/09/29 08:26:40;;;;;;;8.80;6.18;;;24.10;62.70;;;;;;5131625;27;20190;-76
2022/09/29 08:29:06;;;;;;;13.23;5.90;;;25.30;59.80;;;;;;5132810;27;20174;-77
2022/09/29 08:31:32;;;;;;;13.52;6.60;;;25.80;57.20;;;;;;5131758;27;20174;-76
2022/09/29 08:33:58;;;;;;;6.45;5.50;;;26.10;54.20;;;;;;5110970;28;20167;-76
2022/09/29 08:36:25;;;;;;;12.70;6.20;;;25.90;99.90;;;;;;5120593;27;20170;-77
2022/09/29 08:38:52;;;;;;;10.50;5.78;;;25.50;99.90;;;;;;5132472;27;20631;-77
2022/09/29 08:41:32;;;;;;;15.02;7.05;;;26.20;99.90;;;;;;5131228;27;20167;-75
2022/09/29 08:44:21;;;;;;;12.80;6.15;;;25.60;99.90;;;;;;5132192;27;20178;-75
2022/09/29 08:46:58;;;;;;;8.85;6.07;;;25.30;99.90;;;;;;5109452;28;20175;-73
2022/09/29 08:49:36;;;;;;;11.02;6.03;;;25.60;99.90;;;;;;5130509;28;20188;-78
2022/09/29 08:52:10;;;;;;;11.95;6.50;;;25.00;99.90;;;;;;5132114;28;20173;-79
2022/09/29 08:54:41;;;;;;;5.55;4.88;;;26.00;99.90;;;;;;5132418;28;20166;-74
2022/09/29 08:57:17;;;;;;;6.53;4.70;;;26.50;99.90;;;;;;5132356;28;20174;-75
2022/09/29 08:59:52;;;;;;;7.72;5.38;;;27.10;99.90;;;;;;5115976;28;20296;-74
2022/09/29 09:02:35;;;;;;;8.55;5.00;;;27.30;99.90;;;;;;5127276;28;20234;-75
2022/09/29 09:05:16;;;;;;;7.00;4.90;;;27.60;99.90;;;;;;5126681;28;20170;-75
2022/09/29 09:07:50;;;;;;;8.25;5.00;;;27.60;99.90;;;;;;5117726;28;20261;-78
2022/09/29 09:10:27;;;;;;;9.88;4.53;;;26.00;99.90;;;;;;5129606;28;20218;-73
2022/09/29 09:13:13;;;;;;;8.25;4.50;;;26.00;99.90;;;;;;5130974;28;20174;-79
2022/09/29 09:15:59;;;;;;;6.82;4.10;;;26.00;99.90;;;;;;5118263;28;20178;-73
2022/09/29 09:18:49;;;;;;;13.00;4.78;;;25.50;99.90;;;;;;5129880;28;20207;-76
2022/09/29 09:21:20;;;;;;;5.07;4.10;;;26.10;99.90;;;;;;5132072;28;20170;-74
2022/09/29 09:23:54;;;;;;;6.10;4.07;;;26.30;99.90;;;;;;5132364;28;20219;-76
2022/09/29 09:26:41;;;;;;;6.13;4.22;;;26.50;99.90;;;;;;5131968;28;20243;-74
2022/09/29 09:29:16;;;;;;;4.80;3.58;;;26.80;99.90;;;;;;5091142;28;20203;-74
2022/09/29 09:31:48;;;;;;;4.57;3.33;;;26.40;99.90;;;;;;5077482;28;20171;-77
2022/09/29 09:34:18;;;;;;;8.85;3.85;;;27.00;99.90;;;;;;5091266;28;20176;-77
2022/09/29 09:36:59;;;;;;;7.13;4.22;;;27.20;99.90;;;;;;5091152;28;20216;-76
2022/09/29 09:39:28;;;;;;;6.45;4.60;;;27.20;99.90;;;;;;5088196;28;20196;-75
2022/09/29 09:41:58;;;;;;;7.43;4.07;;;27.40;99.90;;;;;;5089905;28;20191;-76
2022/09/29 09:44:38;;;;;;;4.63;4.13;;;26.70;99.90;;;;;;5084812;28;20220;-77
2022/09/29 09:47:28;;;;;;;6.18;4.07;;;26.80;99.90;;;;;;5080997;28;20245;-76
2022/09/29 09:50:01;;;;;;;5.38;3.75;;;27.40;99.90;;;;;;5084607;28;20180;-73
2022/09/29 09:52:42;;;;;;;9.25;3.40;;;27.60;99.90;;;;;;5088581;28;20208;-74
2022/09/29 09:55:19;;;;;;;3.85;3.17;;;28.10;99.90;;;;;;5081254;28;20172;-75
2022/09/29 09:57:48;;;;;;;5.80;3.80;;;28.80;99.90;;;;;;5093224;28;20167;-77
2022/09/29 10:00:17;;;;;;;4.22;3.72;;;27.70;99.90;;;;;;5094286;28;20208;-75
2022/09/29 10:02:54;;;;;;;7.63;3.65;;;26.40;99.90;;;;;;5088675;28;20272;-73
2022/09/29 10:05:33;;;;;;;5.00;3.63;;;25.70;99.90;;;;;;5091163;28;20646;-75
2022/09/29 10:07:59;;;;;;;7.53;3.70;;;26.20;99.90;;;;;;5094260;28;20175;-74
2022/09/29 10:10:28;;;;;;;5.65;4.68;;;26.60;99.90;;;;;;5093976;28;20224;-74
2022/09/29 10:13:13;;;;;;;4.63;3.22;;;27.10;99.90;;;;;;5093898;28;20590;-73
2022/09/29 10:15:56;;;;;;;4.20;2.80;;;26.70;99.90;;;;;;5094088;28;20650;-73
2022/09/29 10:18:41;;;;;;;5.68;4.10;;;26.20;99.90;;;;;;5093550;28;20199;-76
2022/09/29 10:21:35;;;;;;;5.35;3.90;;;25.70;99.90;;;;;;5093672;28;20176;-74
2022/09/29 10:24:01;;;;;;;3.30;3.05;;;26.10;99.90;;;;;;5080503;28;20258;-74
2022/09/29 10:26:38;;;;;;;3.70;3.28;;;24.30;99.90;;;;;;5093704;28;20233;-76
2022/09/29 10:29:37;;;;;;;11.65;3.42;;;24.00;99.90;;;;;;5094151;28;20206;-75
2022/09/29 10:32:08;;;;;;;6.13;3.53;;;24.30;99.90;;;;;;5080823;28;20624;-75
2022/09/29 10:34:40;;;;;;;4.75;3.35;;;24.30;99.90;;;;;;5093815;28;20753;-76
2022/09/29 10:37:32;;;;;;;3.63;3.33;;;25.00;99.90;;;;;;5093507;28;20160;-75
2022/09/29 10:40:07;;;;;;;3.35;3.05;;;25.00;99.90;;;;;;5069859;28;20215;-75
2022/09/29 10:42:38;;;;;;;8.35;3.33;;;25.50;99.90;;;;;;5088673;28;20156;-76
2022/09/29 10:45:14;;;;;;;4.22;3.00;;;26.00;99.90;;;;;;5080727;28;20188;-75
2022/09/29 10:47:43;;;;;;;3.42;3.13;;;25.80;99.90;;;;;;5093704;28;20179;-76
2022/09/29 10:50:23;;;;;;;3.30;3.00;;;26.10;99.90;;;;;;5093701;28;20172;-74
2022/09/29 10:52:55;;;;;;;4.75;3.10;;;26.60;99.90;;;;;;5093641;28;20182;-75
2022/09/29 10:55:24;;;;;;;4.53;2.92;;;27.00;99.90;;;;;;5093169;28;20182;-74
2022/09/29 10:57:57;;;;;;;4.88;3.25;;;26.60;99.90;;;;;;5093906;28;20199;-74
2022/09/29 11:00:36;;;;;;;6.40;3.15;;;26.20;99.90;;;;;;5093562;28;20262;-74
2022/09/29 11:03:25;;;;;;;2.78;2.58;;;25.70;99.90;;;;;;5089162;28;20172;-74
2022/09/29 11:06:22;;;;;;;3.65;2.60;;;26.50;99.90;;;;;;5077886;28;20490;-76
2022/09/29 11:08:59;;;;;;;4.05;2.72;;;25.60;99.90;;;;;;5090703;28;20216;-75
2022/09/29 11:11:33;;;;;;;5.05;3.67;;;25.60;99.90;;;;;;5092848;28;20179;-75
2022/09/29 11:13:59;;;;;;;7.45;3.10;;;25.90;99.90;;;;;;5092827;28;20234;-76
2022/09/29 11:16:27;;;;;;;1.50;1.40;;;25.80;99.90;;;;;;5090983;28;20577;-76
2022/09/29 11:19:05;;;;;;;2.90;1.70;;;25.30;99.90;;;;;;5088974;28;20201;-76
2022/09/29 11:22:02;;;;;;;2.53;2.10;;;25.10;99.90;;;;;;5091427;28;20273;-76
2022/09/29 11:24:53;;;;;;;2.40;1.88;;;24.60;99.90;;;;;;5086602;28;20186;-77
2022/09/29 11:27:37;;;;;;;2.75;2.55;;;24.40;99.90;;;;;;5106347;27;20313;-75
2022/09/29 11:30:19;;;;;;;2.65;2.25;;;25.10;99.90;;;;;;5133787;27;20166;-75
2022/09/29 11:33:11;;;;;;;3.28;2.03;;;25.30;99.90;;;;;;5132047;27;20165;-76
2022/09/29 11:35:50;;;;;;;4.93;2.53;;;25.50;99.90;;;;;;5133154;27;20162;-76
2022/09/29 11:38:28;;;;;;;4.10;1.70;;;24.60;99.90;;;;;;5133609;27;20224;-75
2022/09/29 11:41:23;;;;;;;2.50;1.67;;;24.00;99.90;;;;;;5133797;27;20171;-75
2022/09/29 11:44:21;;;;;;;3.28;1.90;;;23.20;99.90;;;;;;5109183;27;20657;-75
2022/09/29 11:46:53;;;;;;;2.40;1.70;;;22.80;99.90;;;;;;5074876;28;20248;-74
2022/09/29 11:49:37;;;;;;;1.92;1.70;;;21.80;99.90;;;;;;5129362;27;20166;-75
2022/09/29 11:52:41;;;;;;;1.83;1.60;;;20.90;1.00;;;;;;5133784;27;20194;-73
2022/09/29 11:55:09;;;;;;;3.85;2.20;;;20.60;1.00;;;;;;5133523;27;20194;-73
2022/09/29 11:57:54;;;;;;;2.25;1.70;;;20.30;1.00;;;;;;5133213;27;20175;-74
2022/09/29 12:00:28;;;;;;;2.78;1.90;;;20.20;1.00;;;;;;5132840;27;20206;-72
2022/09/29 12:03:15;;;;;;;2.35;1.90;;;19.90;20.00;;;;;;5133285;27;20646;-74
2022/09/29 12:06:00;;;;;;;1.70;1.60;;;19.50;1.00;;;;;;5116585;27;20167;-71
2022/09/29 12:08:32;;;;;;;4.65;2.00;;;19.30;68.90;;;;;;5133255;27;20175;-73
2022/09/29 12:11:24;;;;;;;3.83;2.10;;;19.20;71.30;;;;;;5132843;27;20230;-73
2022/09/29 12:13:59;;;;;;;3.00;2.58;;;19.10;72.30;;;;;;5086082;27;20650;-73
2022/09/29 12:16:31;;;;;;;3.75;1.80;;;19.20;77.20;;;;;;5132660;27;20162;-75
2022/09/29 12:19:18;;;;;;;3.30;1.60;;;19.30;1.00;;;;;;5110714;28;20718;-74
2022/09/29 12:21:45;;;;;;;2.08;1.65;;;19.20;1.00;;;;;;5122722;27;20194;-74
2022/09/29 12:24:35;;;;;;;1.90;1.70;;;19.20;1.00;;;;;;5111455;28;20175;-74
2022/09/29 12:27:07;;;;;;;2.38;1.50;;;19.00;77.10;;;;;;5127189;27;20217;-74
2022/09/29 12:29:46;;;;;;;5.28;1.70;;;18.80;77.80;;;;;;5132127;27;20178;-74
2022/09/29 12:32:23;;;;;;;2.80;1.70;;;18.60;79.10;;;;;;5121539;27;20174;-72
2022/09/29 12:35:03;;;;;;;3.83;1.80;;;18.80;82.80;;;;;;5132080;27;20630;-72
2022/09/29 12:37:40;;;;;;;4.15;2.30;;;18.80;81.90;;;;;;5131720;27;20173;-74
2022/09/29 12:40:18;;;;;;;2.75;1.70;;;18.60;84.20;;;;;;5132370;27;20204;-73
2022/09/29 12:43:05;;;;;;;1.75;1.55;;;18.70;83.20;;;;;;5132056;28;20264;-73
2022/09/29 12:45:45;;;;;;;1.90;1.50;;;18.60;80.30;;;;;;5132200;28;20209;-73
2022/09/29 12:48:11;;;;;;;1.45;1.30;;;18.60;1.00;;;;;;5132676;28;20184;-73
2022/09/29 12:50:48;;;;;;;3.58;1.42;;;18.50;30.80;;;;;;5131293;28;20325;-74
2022/09/29 12:53:33;;;;;;;3.17;1.20;;;18.50;80.80;;;;;;5128886;28;20182;-73
2022/09/29 12:56:13;;;;;;;1.33;1.30;;;19.10;99.90;;;;;;5118223;28;20158;-73
2022/09/29 12:58:51;;;;;;;1.90;1.52;;;18.80;99.90;;;;;;5132409;28;20192;-72
2022/09/29 13:01:22;;;;;;;2.00;1.42;;;18.50;1.00;;;;;;5132319;28;20257;-71
2022/09/29 13:04:30;;;;;;;3.60;1.63;;;18.60;80.40;;;;;;5131918;28;20215;-72
2022/09/29 13:07:11;;;;;;;4.85;1.67;;;19.00;82.10;;;;;;5131551;28;20227;-74
2022/09/29 13:09:36;;;;;;;2.00;1.55;;;19.00;79.60;;;;;;5112880;28;20163;-74
2022/09/29 13:12:04;;;;;;;4.25;1.25;;;19.10;79.40;;;;;;5132030;28;20239;-74
2022/09/29 13:14:30;;;;;;;2.40;1.30;;;18.90;78.90;;;;;;5131924;28;20166;-75